createdAt,value
2023-05-20T00:09:12.126Z,26.00
2023-05-20T00:19:19.161Z,26.10
2023-05-20T00:29:29.493Z,25.50
2023-05-20T00:39:38.093Z,25.30
2023-05-20T00:49:49.687Z,25.50
2023-05-20T00:59:59.028Z,25.80
2023-05-20T01:10:08.936Z,26.00
2023-05-20T01:20:17.763Z,26.20
2023-05-20T01:30:26.856Z,26.30
2023-05-20T01:40:35.948Z,26.40
2023-05-20T01:50:44.485Z,26.50
2023-05-20T02:00:52.565Z,26.50
2023-05-20T02:11:01.239Z,26.60
2023-05-20T02:21:10.264Z,26.60
2023-05-20T02:31:19.937Z,26.80
2023-05-20T02:41:27.418Z,26.70
2023-05-20T02:51:36.072Z,26.70
2023-05-20T03:02:07.601Z,26.70
2023-05-20T03:12:20.032Z,26.70
2023-05-20T03:22:27.066Z,26.70
2023-05-20T03:32:36.018Z,26.70
2023-05-20T03:42:43.647Z,26.70
2023-05-20T03:52:53.355Z,26.70
2023-05-20T04:03:03.033Z,26.80
2023-05-20T04:13:18.229Z,26.80
2023-05-20T04:23:26.168Z,26.80
2023-05-20T04:33:38.799Z,26.70
2023-05-20T04:43:47.911Z,26.60
2023-05-20T04:53:57.361Z,26.50
2023-05-20T05:04:04.605Z,26.60
2023-05-20T05:14:13.181Z,26.60
2023-05-20T05:24:20.264Z,26.70
2023-05-20T05:34:28.897Z,26.60
2023-05-20T05:44:36.224Z,26.70
2023-05-20T05:54:46.986Z,26.70
2023-05-20T06:04:54.324Z,26.70
2023-05-20T06:15:02.930Z,26.60
2023-05-20T06:25:10.995Z,26.50
2023-05-20T06:35:19.694Z,26.50
2023-05-20T06:45:26.972Z,26.30
2023-05-20T06:55:38.372Z,26.30
2023-05-20T07:05:46.123Z,26.30
2023-05-20T07:15:56.019Z,26.40
2023-05-20T07:26:03.536Z,26.30
2023-05-20T07:36:12.373Z,26.30
2023-05-20T07:46:22.470Z,26.30
2023-05-20T07:56:31.576Z,26.30
2023-05-20T08:06:40.676Z,26.30
2023-05-20T08:16:54.768Z,26.20
2023-05-20T08:27:02.752Z,26.20
2023-05-20T08:37:11.488Z,26.20
2023-05-20T08:47:19.253Z,26.20
2023-05-20T08:57:28.894Z,26.20
2023-05-20T09:07:35.678Z,26.20
2023-05-20T09:17:44.117Z,26.20
2023-05-20T09:27:51.009Z,26.20
2023-05-20T09:38:00.191Z,26.20
2023-05-20T09:48:08.325Z,26.20
2023-05-20T09:58:17.169Z,26.20
2023-05-20T10:08:57.776Z,26.20
2023-05-20T10:19:14.978Z,26.20
2023-05-20T10:29:23.697Z,26.20
2023-05-20T10:39:35.127Z,26.20
2023-05-20T10:49:47.354Z,26.10
2023-05-20T10:59:56.377Z,26.10
2023-05-20T11:10:03.136Z,26.10
2023-05-20T11:20:14.491Z,26.10
2023-05-20T11:30:22.411Z,26.10
2023-05-20T11:40:38.957Z,26.10
2023-05-20T11:50:55.776Z,26.10
2023-05-20T12:01:14.083Z,26.00
2023-05-20T12:11:28.248Z,26.00
2023-05-20T12:21:36.795Z,26.00
2023-05-20T12:31:43.655Z,26.00
2023-05-20T12:41:52.267Z,26.00
2023-05-20T12:52:01.440Z,26.00
2023-05-20T13:02:11.883Z,26.00
2023-05-20T13:12:19.057Z,25.90
2023-05-20T13:22:27.585Z,26.00
2023-05-20T13:32:34.368Z,26.00
2023-05-20T13:42:43.066Z,26.00
2023-05-20T13:53:06.400Z,25.90
2023-05-20T14:03:15.008Z,25.90
2023-05-20T14:13:22.904Z,25.90
2023-05-20T14:23:31.563Z,26.00
2023-05-20T14:33:38.539Z,25.90
2023-05-20T14:43:47.201Z,25.90
2023-05-20T14:53:54.538Z,25.90
2023-05-20T15:04:03.086Z,25.90
2023-05-20T15:14:10.733Z,26.00
2023-05-20T15:24:19.936Z,26.00
2023-05-20T15:34:26.781Z,26.10
2023-05-20T15:44:40.785Z,26.20
2023-05-20T15:54:48.383Z,26.20
2023-05-20T16:17:11.425Z,26.30
2023-05-20T16:27:29.826Z,26.30
2023-05-20T16:37:38.806Z,26.30
2023-05-20T16:47:45.792Z,26.20
2023-05-20T16:57:57.180Z,26.10
2023-05-20T17:08:19.200Z,26.10
2023-05-20T17:18:27.769Z,26.00
2023-05-20T17:28:34.724Z,25.90
2023-05-20T17:38:43.218Z,25.70
2023-05-20T17:49:11.456Z,25.60
2023-05-20T17:59:26.767Z,25.40
2023-05-20T18:09:37.077Z,25.30
2023-05-20T18:19:45.691Z,25.50
2023-05-20T18:29:52.579Z,25.40
2023-05-20T18:40:01.079Z,25.40
2023-05-20T18:50:08.706Z,25.30
2023-05-20T19:00:19.066Z,24.90
2023-05-20T19:10:26.937Z,24.60
2023-05-20T19:20:37.389Z,24.50
2023-05-20T19:30:44.381Z,24.30
2023-05-20T19:40:52.908Z,24.30
2023-05-20T19:50:59.895Z,24.20
2023-05-20T20:01:09.175Z,24.10
2023-05-20T20:11:16.876Z,24.20
2023-05-20T20:21:32.695Z,24.30
2023-05-20T20:31:39.609Z,24.00
2023-05-20T20:41:51.148Z,23.70
2023-05-20T20:51:58.268Z,23.90
2023-05-20T21:02:08.073Z,23.70
2023-05-20T21:12:14.994Z,23.40
2023-05-20T21:22:23.597Z,23.30
2023-05-20T21:32:30.545Z,23.20
2023-05-20T21:42:38.968Z,22.90
2023-05-20T21:52:46.001Z,22.90
2023-05-20T22:02:55.276Z,22.80
2023-05-20T22:13:02.919Z,22.70
2023-05-20T22:23:11.501Z,22.90
2023-05-20T22:33:18.815Z,22.70
2023-05-20T22:43:27.347Z,22.80
2023-05-20T22:53:34.287Z,23.00
2023-05-20T23:03:43.319Z,23.60
2023-05-20T23:13:50.173Z,23.90
2023-05-20T23:23:58.641Z,24.20
2023-05-20T23:34:05.725Z,24.40
2023-05-20T23:44:14.302Z,24.60
2023-05-20T23:54:22.450Z,24.60
